Buique, Brazil
Current Conditions -  °F | °C
As of 7:00 AM on Thursday 23 Oct 2014 (Local Time) from SBMO Reporting Station
Light Rain Light Rain  
Wind Chill: 72°   Ceiling: 2000
Heat Index: 72°   Visibility: 1.8mi
Dew Point: 70°   Wind: 8mph
Humidity: 94%   Direction: 120°ESE
Pressure: 30.03"   Gusts: NA
Location:  8.62°S, 37.16°W
Report Text: SBMO 231000Z 12007KT 3000 -RA SCT010 BKN020 22/21 Q1017
Loading
Personal Weather Stations






























Interactive Weather Map
Tropical Storm Tracking
New forecast layout! Learn more

10-Day Weather Forecast

Advertisements
Track Severe Weather on mobile